Time;durP1;ratioP1;P1;durP2;ratioP2;P2;SDS_P1;SDS_P2;PMS_P1;PMS_P2;Temp;Humidity;BMP_temperature;BMP_pressure;BME280_temperature;BME280_humidity;BME280_pressure;Samples;Min_cycle;Max_cycle;Signal;HPM_P1;HPM_P2
2023/02/04 00:00:36;;;;;;;7.78;3.03;;;;;;;8.62;48.31;102724.47;5027965;28;20130;-83
2023/02/04 00:03:05;;;;;;;8.23;2.55;;;;;;;8.63;48.38;102728.97;5044678;28;20049;-82
2023/02/04 00:05:34;;;;;;;8.68;2.50;;;;;;;8.63;48.10;102736.28;5016893;28;20041;-83
2023/02/04 00:08:04;;;;;;;8.25;2.47;;;;;;;8.64;48.28;102735.31;5025707;28;20041;-82
2023/02/04 00:10:34;;;;;;;10.20;2.60;;;;;;;8.62;48.64;102732.66;5026883;28;20041;-82
2023/02/04 00:13:02;;;;;;;5.43;2.40;;;;;;;8.62;48.45;102743.56;5025900;28;20049;-82
2023/02/04 00:15:34;;;;;;;8.00;2.70;;;;;;;8.62;48.65;102751.75;5027247;28;20038;-82
2023/02/04 00:18:02;;;;;;;8.93;2.60;;;;;;;8.61;48.30;102755.44;5030148;28;20144;-82
2023/02/04 00:20:30;;;;;;;10.27;2.78;;;;;;;8.62;48.80;102764.53;5028009;28;20372;-82
2023/02/04 00:22:59;;;;;;;6.38;2.38;;;;;;;8.63;48.68;102771.75;5030085;28;20419;-82
2023/02/04 00:25:28;;;;;;;7.85;2.53;;;;;;;8.64;48.39;102763.50;5029133;28;20133;-82
2023/02/04 00:27:56;;;;;;;7.20;2.78;;;;;;;8.62;48.61;102765.41;5033030;28;20042;-82
2023/02/04 00:30:24;;;;;;;9.30;3.08;;;;;;;8.62;48.70;102759.94;5032673;28;20088;-82
2023/02/04 00:32:53;;;;;;;9.95;2.72;;;;;;;8.63;48.91;102760.84;5035896;28;20045;-82
2023/02/04 00:35:22;;;;;;;8.73;2.55;;;;;;;8.63;48.57;102774.47;5010886;28;20049;-82
2023/02/04 00:37:52;;;;;;;9.52;2.50;;;;;;;8.63;48.24;102760.84;5037026;28;20049;-82
2023/02/04 00:40:20;;;;;;;7.68;2.22;;;;;;;8.63;48.58;102767.19;5034012;28;20175;-83
2023/02/04 00:42:50;;;;;;;10.15;3.15;;;;;;;8.64;48.65;102765.34;5034683;28;20113;-82
2023/02/04 00:45:19;;;;;;;8.48;2.20;;;;;;;8.62;48.66;102765.41;5046869;28;20064;-82
2023/02/04 00:47:47;;;;;;;7.38;2.22;;;;;;;8.61;48.15;102760.91;5028496;28;20053;-82
2023/02/04 00:50:16;;;;;;;7.95;2.60;;;;;;;8.60;48.69;102753.66;5033401;28;20057;-82
2023/02/04 00:52:46;;;;;;;8.55;2.72;;;;;;;8.62;48.18;102765.41;5036252;28;20049;-82
2023/02/04 00:55:16;;;;;;;7.57;2.20;;;;;;;8.60;48.59;102767.31;5033144;28;20037;-82
2023/02/04 00:57:46;;;;;;;8.98;2.78;;;;;;;8.60;48.53;102766.44;5025191;28;20598;-82
2023/02/04 01:00:17;;;;;;;8.30;2.30;;;;;;;8.60;48.54;102767.31;5033435;28;20133;-82
2023/02/04 01:02:45;;;;;;;9.18;2.78;;;;;;;8.59;48.61;102771.00;5049545;28;20416;-81
2023/02/04 01:05:15;;;;;;;6.60;2.25;;;;;;;8.59;48.79;102775.56;5028277;28;20389;-81
2023/02/04 01:07:44;;;;;;;9.57;2.47;;;;;;;8.59;48.39;102781.03;5033820;28;20056;-81
2023/02/04 01:10:14;;;;;;;10.77;2.67;;;;;;;8.59;48.35;102781.03;5032884;28;20049;-82
2023/02/04 01:12:45;;;;;;;7.40;2.15;;;;;;;8.60;48.56;102780.97;5035198;28;20091;-81
2023/02/04 01:15:13;;;;;;;6.22;2.10;;;;;;;8.58;48.34;102776.56;5032216;28;20598;-82
2023/02/04 01:17:43;;;;;;;9.77;3.08;;;;;;;8.58;48.00;102777.44;5033998;28;20127;-83
2023/02/04 01:20:13;;;;;;;7.47;2.30;;;;;;;8.58;48.12;102784.75;5050291;28;20043;-82
2023/02/04 01:22:41;;;;;;;7.90;2.42;;;;;;;8.56;48.49;102784.81;5036302;28;20053;-83
2023/02/04 01:25:09;;;;;;;7.68;2.60;;;;;;;8.57;48.22;102785.72;5010916;28;20496;-83
2023/02/04 01:27:41;;;;;;;8.70;2.17;;;;;;;8.55;48.56;102777.59;5047796;28;20046;-83
2023/02/04 01:30:12;;;;;;;6.45;2.28;;;;;;;8.56;48.37;102782.09;4986721;28;20053;-83
2023/02/04 01:32:40;;;;;;;7.50;2.08;;;;;;;8.54;48.31;102781.28;5032717;28;20136;-83
2023/02/04 01:35:10;;;;;;;8.63;2.90;;;;;;;8.55;48.51;102788.50;5047618;28;20160;-83
2023/02/04 01:37:38;;;;;;;7.85;2.47;;;;;;;8.54;48.45;102794.03;5021567;28;20042;-83
2023/02/04 01:40:07;;;;;;;9.68;2.13;;;;;;;8.55;48.38;102804.00;5028617;28;20049;-81
2023/02/04 01:42:39;;;;;;;9.65;2.55;;;;;;;8.54;48.81;102813.13;5032459;28;20053;-82
2023/02/04 01:45:09;;;;;;;8.32;2.63;;;;;;;8.54;48.24;102815.88;5005013;28;20045;-82
2023/02/04 01:47:38;;;;;;;9.65;2.45;;;;;;;8.53;48.47;102814.97;5044555;28;20381;-82
2023/02/04 01:50:13;;;;;;;7.43;2.80;;;;;;;8.54;48.67;102816.75;5030881;28;20056;-82
2023/02/04 01:52:47;;;;;;;7.70;2.30;;;;;;;8.55;48.52;102821.25;5026484;28;20042;-82
2023/02/04 01:55:19;;;;;;;6.95;2.03;;;;;;;8.53;48.84;102817.72;4988360;28;20042;-82
2023/02/04 01:57:49;;;;;;;9.95;2.35;;;;;;;8.52;49.03;102821.38;5030507;28;20558;-82
2023/02/04 02:00:23;;;;;;;7.68;1.98;;;;;;;8.54;48.20;102824.06;5031525;28;20566;-83
2023/02/04 02:02:55;;;;;;;8.88;2.05;;;;;;;8.53;48.53;102831.34;5030487;28;20096;-83
2023/02/04 02:05:36;;;;;;;7.82;2.30;;;;;;;8.52;48.28;102834.16;5004992;28;20072;-83
2023/02/04 02:08:06;;;;;;;9.43;2.60;;;;;;;8.51;48.62;102829.63;5031109;28;20160;-83
2023/02/04 02:10:36;;;;;;;9.32;2.53;;;;;;;8.51;48.71;102832.38;5029361;28;20041;-83
2023/02/04 02:13:05;;;;;;;8.07;2.80;;;;;;;8.51;48.86;102833.25;5023058;28;20563;-83
2023/02/04 02:15:38;;;;;;;8.77;2.15;;;;;;;8.51;48.50;102832.38;5024014;28;20051;-83
2023/02/04 02:18:07;;;;;;;5.78;3.03;;;;;;;8.50;48.51;102838.81;5031332;28;20088;-83
2023/02/04 02:20:37;;;;;;;8.65;2.78;;;;;;;8.52;48.68;102836.88;5045133;28;20042;-83
2023/02/04 02:23:16;;;;;;;7.80;2.10;;;;;;;8.52;48.74;102843.22;5044699;28;20563;-83
2023/02/04 02:25:46;;;;;;;7.75;2.45;;;;;;;8.49;48.88;102839.78;5029958;28;20468;-83
2023/02/04 02:28:17;;;;;;;11.75;2.20;;;;;;;8.49;48.65;102842.50;5031657;28;20061;-82
2023/02/04 02:30:47;;;;;;;8.93;2.33;;;;;;;8.47;48.97;102847.13;5024133;28;20045;-82
2023/02/04 02:33:19;;;;;;;8.25;2.38;;;;;;;8.48;48.62;102848.91;5043502;28;20088;-82
2023/02/04 02:35:48;;;;;;;7.22;2.10;;;;;;;8.46;48.54;102851.72;5030846;28;20083;-82
2023/02/04 02:38:18;;;;;;;7.35;2.53;;;;;;;8.46;48.62;102848.97;5027755;28;20099;-82
2023/02/04 02:40:52;;;;;;;8.07;2.33;;;;;;;8.47;48.43;102860.78;5029751;28;20107;-82
2023/02/04 02:43:25;;;;;;;5.80;1.75;;;;;;;8.44;48.76;102856.34;5019140;28;20056;-81
2023/02/04 02:45:54;;;;;;;6.47;2.17;;;;;;;8.43;48.58;102854.56;5047445;28;20447;-82
2023/02/04 02:48:23;;;;;;;7.13;2.03;;;;;;;8.44;48.91;102855.47;5031413;28;20050;-81
2023/02/04 02:50:53;;;;;;;8.18;2.40;;;;;;;8.42;48.92;102854.66;5031473;28;20289;-82
2023/02/04 02:53:22;;;;;;;6.50;1.83;;;;;;;8.42;48.96;102858.28;5028594;28;20037;-82
2023/02/04 02:55:55;;;;;;;8.88;2.03;;;;;;;8.44;48.71;102860.91;5040132;28;20128;-82
2023/02/04 02:58:31;;;;;;;8.07;2.30;;;;;;;8.44;48.56;102866.38;5002222;28;20041;-82
2023/02/04 03:01:02;;;;;;;8.80;2.17;;;;;;;8.42;48.58;102863.75;5030401;28;20060;-82
2023/02/04 03:03:34;;;;;;;7.45;2.00;;;;;;;8.42;48.58;102852.81;5026770;28;20053;-82
2023/02/04 03:06:11;;;;;;;7.40;1.92;;;;;;;8.39;49.00;102866.59;5024926;28;20042;-82
2023/02/04 03:08:40;;;;;;;6.78;2.03;;;;;;;8.39;49.02;102865.72;5009266;28;20535;-82
2023/02/04 03:11:16;;;;;;;7.30;1.75;;;;;;;8.41;48.86;102861.06;5050279;28;20037;-82
2023/02/04 03:13:46;;;;;;;7.70;1.80;;;;;;;8.38;48.78;102866.66;5042472;28;20129;-82
2023/02/04 03:16:15;;;;;;;9.52;2.00;;;;;;;8.38;49.22;102869.38;5033109;28;20587;-82
2023/02/04 03:18:42;;;;;;;7.43;1.92;;;;;;;8.38;49.03;102874.84;5028552;28;20148;-81
2023/02/04 03:21:11;;;;;;;7.47;1.88;;;;;;;8.37;49.20;102873.97;5031450;28;20033;-82
2023/02/04 03:23:39;;;;;;;6.95;2.40;;;;;;;8.37;49.11;102875.81;5031172;28;20087;-82
2023/02/04 03:26:07;;;;;;;10.30;2.22;;;;;;;8.37;48.90;102884.88;5031305;28;20483;-82
2023/02/04 03:28:41;;;;;;;10.05;2.65;;;;;;;8.38;48.60;102878.47;5030341;28;20041;-81
2023/02/04 03:31:12;;;;;;;6.15;2.08;;;;;;;8.35;48.90;102881.31;5046173;28;20068;-81
2023/02/04 03:33:41;;;;;;;6.85;2.28;;;;;;;8.34;49.08;102874.97;5033383;28;20041;-82
2023/02/04 03:36:09;;;;;;;9.30;2.35;;;;;;;8.34;49.12;102874.97;5032173;28;20042;-82
2023/02/04 03:38:37;;;;;;;7.25;1.95;;;;;;;8.34;49.26;102879.59;5028829;28;20354;-81
2023/02/04 03:41:08;;;;;;;6.35;1.90;;;;;;;8.35;49.46;102886.78;5031502;28;20033;-81
2023/02/04 03:43:36;;;;;;;5.47;1.98;;;;;;;8.34;49.18;102894.06;4999902;28;20044;-81
2023/02/04 03:46:05;;;;;;;7.30;2.05;;;;;;;8.36;49.09;102899.47;5023773;28;20048;-81
2023/02/04 03:48:34;;;;;;;8.85;2.40;;;;;;;8.34;49.01;102899.53;5029809;28;20463;-81
2023/02/04 03:51:02;;;;;;;5.40;1.92;;;;;;;8.33;49.09;102900.53;5025715;28;20045;-81
2023/02/04 03:53:30;;;;;;;9.85;2.53;;;;;;;8.34;48.92;102906.88;5024301;28;20107;-80
2023/02/04 03:55:58;;;;;;;7.53;1.90;;;;;;;8.34;48.87;102904.13;5029195;28;20046;-81
2023/02/04 03:58:26;;;;;;;9.35;1.92;;;;;;;8.32;48.77;102904.19;5003238;28;20049;-81
2023/02/04 04:04:41;;;;;;;;;;;;;;;8.03;49.48;102903.69;5028216;28;20045;-80
2023/02/04 04:07:09;;;;;;;11.25;1.95;;;;;;;8.23;49.34;102895.53;5029582;28;19925;-80
2023/02/04 04:09:38;;;;;;;8.90;1.83;;;;;;;8.27;49.24;102906.22;5029951;28;20080;-79
2023/02/04 04:12:07;;;;;;;8.48;2.58;;;;;;;8.27;48.83;102902.63;5029077;28;20029;-81
2023/02/04 04:14:35;;;;;;;6.30;2.10;;;;;;;8.25;49.02;102899.97;5007182;28;20076;-80
2023/02/04 04:17:05;;;;;;;5.10;1.90;;;;;;;8.26;48.93;102887.19;5032458;28;20041;-80
2023/02/04 04:19:33;;;;;;;6.22;1.75;;;;;;;8.24;48.87;102895.47;5009375;28;20070;-81
2023/02/04 04:22:01;;;;;;;7.32;2.00;;;;;;;8.25;49.01;102901.81;5028572;28;20324;-81
2023/02/04 04:24:29;;;;;;;5.50;1.90;;;;;;;8.22;48.99;102900.13;5029656;28;20129;-81
2023/02/04 04:26:57;;;;;;;7.13;2.25;;;;;;;8.22;48.94;102900.13;5028224;28;20148;-81
2023/02/04 04:29:25;;;;;;;8.68;3.13;;;;;;;8.23;49.82;102909.19;5029210;28;20041;-80
2023/02/04 04:31:55;;;;;;;7.15;2.08;;;;;;;8.23;49.12;102918.25;5030685;28;20037;-81
2023/02/04 04:34:25;;;;;;;6.63;1.75;;;;;;;8.23;49.28;102928.28;5030554;28;20109;-81
2023/02/04 04:36:57;;;;;;;5.78;2.10;;;;;;;8.23;49.07;102934.63;5030314;28;20045;-80
2023/02/04 04:39:41;;;;;;;6.15;1.90;;;;;;;8.23;48.92;102929.16;5029108;28;20428;-81
2023/02/04 04:42:17;;;;;;;7.43;2.10;;;;;;;8.18;49.54;102941.22;5030182;28;20037;-80
2023/02/04 04:44:45;;;;;;;6.22;2.00;;;;;;;8.20;49.02;102940.19;5005225;28;20048;-81
2023/02/04 04:47:13;;;;;;;6.70;2.15;;;;;;;8.19;49.14;102941.16;5030878;28;20033;-80
2023/02/04 04:49:42;;;;;;;8.30;2.28;;;;;;;8.20;49.11;102948.38;5016212;28;20079;-81
2023/02/04 04:52:10;;;;;;;8.15;2.10;;;;;;;8.19;49.42;102940.25;5029457;28;20033;-81
2023/02/04 04:54:39;;;;;;;7.50;2.10;;;;;;;8.18;49.38;102942.09;5008227;28;20080;-81
2023/02/04 04:57:07;;;;;;;9.35;2.00;;;;;;;8.19;49.23;102951.19;5031542;28;20033;-81
2023/02/04 04:59:35;;;;;;;6.40;1.95;;;;;;;8.17;49.12;102944.94;5013921;28;20586;-81
2023/02/04 05:02:03;;;;;;;7.85;2.40;;;;;;;8.19;49.64;102948.44;5036992;28;20047;-81
2023/02/04 05:04:31;;;;;;;8.93;2.30;;;;;;;8.17;49.22;102950.38;5011983;28;20042;-81
2023/02/04 05:07:00;;;;;;;6.97;2.10;;;;;;;8.17;49.60;102940.34;5023446;28;20045;-81
2023/02/04 05:09:28;;;;;;;7.55;2.67;;;;;;;8.15;49.16;102945.00;5010004;28;20056;-81
2023/02/04 05:11:56;;;;;;;6.07;2.08;;;;;;;8.16;49.58;102946.75;5040929;28;20025;-81
2023/02/04 05:14:24;;;;;;;9.77;2.47;;;;;;;8.16;49.54;102954.06;5032875;28;20065;-81
2023/02/04 05:16:52;;;;;;;7.40;1.85;;;;;;;8.15;49.47;102960.47;5034439;28;20127;-81
2023/02/04 05:19:20;;;;;;;9.25;2.38;;;;;;;8.15;49.62;102964.06;5033467;28;20041;-81
2023/02/04 05:21:48;;;;;;;9.60;2.25;;;;;;;8.15;49.60;102965.91;5037636;28;20103;-81
2023/02/04 05:24:18;;;;;;;8.40;2.10;;;;;;;8.15;49.77;102974.09;5011778;28;20102;-81
2023/02/04 05:26:46;;;;;;;6.70;2.30;;;;;;;8.12;49.37;102969.63;5041675;28;20051;-81
2023/02/04 05:29:14;;;;;;;8.55;2.63;;;;;;;8.13;49.77;102975.97;5012483;28;20045;-79
2023/02/04 05:31:42;;;;;;;7.05;2.10;;;;;;;8.13;49.15;102978.69;5034436;28;20046;-81
2023/02/04 05:34:10;;;;;;;6.20;2.03;;;;;;;8.11;49.48;102978.75;5008866;28;20123;-80
2023/02/04 05:36:38;;;;;;;7.63;2.10;;;;;;;8.12;49.60;102977.81;5034199;28;20065;-80
2023/02/04 05:39:07;;;;;;;8.82;2.42;;;;;;;8.12;49.35;102974.19;5010331;28;20041;-81
2023/02/04 05:41:36;;;;;;;6.20;1.73;;;;;;;8.12;49.55;102971.47;5034646;28;20076;-81
2023/02/04 05:44:04;;;;;;;6.43;2.20;;;;;;;8.10;49.72;102979.72;5032773;28;20045;-81
2023/02/04 05:46:36;;;;;;;11.13;2.17;;;;;;;8.10;49.53;102987.00;5032740;28;20038;-81
2023/02/04 05:49:04;;;;;;;6.57;2.17;;;;;;;8.10;49.60;102995.19;5015985;28;20095;-81
2023/02/04 05:51:32;;;;;;;8.88;1.95;;;;;;;8.10;49.94;102993.34;5044694;28;20040;-81
2023/02/04 05:54:00;;;;;;;7.80;1.98;;;;;;;8.09;49.47;102987.97;5026951;28;20551;-81
2023/02/04 05:56:29;;;;;;;6.72;2.20;;;;;;;8.09;49.71;103002.50;5044997;28;20446;-81
2023/02/04 05:58:58;;;;;;;7.25;2.10;;;;;;;8.10;49.96;103003.38;5012097;28;20056;-81
2023/02/04 06:01:26;;;;;;;9.45;2.30;;;;;;;8.09;49.44;103009.78;5034181;28;20046;-81
2023/02/04 06:03:54;;;;;;;7.72;2.20;;;;;;;8.08;49.57;103005.28;5011407;28;20053;-81
2023/02/04 06:06:22;;;;;;;7.03;2.45;;;;;;;8.08;49.59;103011.63;5035435;28;20049;-81
2023/02/04 06:08:50;;;;;;;6.00;1.85;;;;;;;8.08;49.46;103006.19;5013215;28;20150;-81
2023/02/04 06:11:18;;;;;;;10.20;2.42;;;;;;;8.09;49.72;103009.78;5033050;28;20065;-81
2023/02/04 06:13:46;;;;;;;8.40;2.72;;;;;;;8.07;49.86;103012.59;5033275;28;20103;-81
2023/02/04 06:16:15;;;;;;;8.55;2.10;;;;;;;8.09;50.10;103021.59;5033308;28;20057;-81
2023/02/04 06:18:43;;;;;;;8.77;2.63;;;;;;;8.08;50.13;103019.81;5033972;28;20064;-81
2023/02/04 06:21:11;;;;;;;6.53;2.20;;;;;;;8.07;50.02;103017.16;5032154;28;20073;-81
2023/02/04 06:23:39;;;;;;;9.05;2.28;;;;;;;8.06;49.62;103024.44;5048393;28;20096;-81
2023/02/04 06:26:09;;;;;;;11.10;2.90;;;;;;;8.07;49.78;103028.94;5033201;28;20091;-80
2023/02/04 06:28:40;;;;;;;;;;;;;;;7.82;50.71;103028.22;5010460;28;20085;-80
2023/02/04 06:31:08;;;;;;;7.10;2.10;;;;;;;8.02;50.01;103024.63;5050117;28;19980;-81
2023/02/04 06:33:38;;;;;;;5.85;2.35;;;;;;;8.06;50.03;103029.91;5008511;28;20069;-80
2023/02/04 06:36:06;;;;;;;7.78;3.05;;;;;;;8.05;49.76;103033.56;5049516;28;20480;-81
2023/02/04 06:38:34;;;;;;;7.40;2.47;;;;;;;8.05;50.18;103033.56;5008992;28;20408;-81
2023/02/04 06:41:02;;;;;;;8.45;3.00;;;;;;;8.05;50.20;103032.69;5033356;28;20120;-81
2023/02/04 06:43:30;;;;;;;8.68;2.95;;;;;;;8.05;49.96;103039.03;5032470;28;20056;-81
2023/02/04 06:45:58;;;;;;;9.27;3.50;;;;;;;8.06;50.23;103038.06;5033426;28;20045;-81
2023/02/04 06:48:26;;;;;;;10.25;3.03;;;;;;;8.05;49.91;103038.13;5029740;28;20041;-82
2023/02/04 06:50:59;;;;;;;9.57;2.80;;;;;;;8.05;50.03;103041.75;5029348;28;20045;-82
2023/02/04 06:53:27;;;;;;;6.50;2.60;;;;;;;8.05;49.97;103041.75;5030968;28;20045;-81
2023/02/04 06:55:55;;;;;;;7.93;2.80;;;;;;;8.05;49.96;103044.47;5033005;28;20087;-82
2023/02/04 06:58:23;;;;;;;9.63;3.20;;;;;;;8.05;49.84;103036.31;5037197;28;20073;-81
2023/02/04 07:00:51;;;;;;;10.73;3.03;;;;;;;8.05;50.03;103038.13;5036228;28;20103;-81
2023/02/04 07:03:19;;;;;;;9.35;3.15;;;;;;;8.04;50.25;103039.97;5031415;28;20061;-81
2023/02/04 07:05:47;;;;;;;8.80;2.75;;;;;;;8.05;50.05;103047.22;5034085;28;20061;-81
2023/02/04 07:08:16;;;;;;;10.48;3.50;;;;;;;8.06;50.33;103043.53;5031883;28;20057;-81
2023/02/04 07:10:44;;;;;;;15.18;3.67;;;;;;;8.04;50.39;103050.00;5032592;28;20103;-81
2023/02/04 07:13:12;;;;;;;11.15;3.33;;;;;;;8.05;50.03;103041.75;5033376;28;20091;-81
2023/02/04 07:15:42;;;;;;;10.65;3.25;;;;;;;8.04;49.77;103055.44;5051006;28;20042;-81
2023/02/04 07:18:10;;;;;;;10.23;3.38;;;;;;;8.02;50.31;103050.06;5032711;28;20053;-81
2023/02/04 07:20:38;;;;;;;9.18;2.95;;;;;;;8.01;50.08;103051.03;5032729;28;20049;-81
2023/02/04 07:23:06;;;;;;;8.98;3.50;;;;;;;8.01;50.01;103045.56;5034657;28;20132;-82
2023/02/04 07:25:35;;;;;;;8.77;3.10;;;;;;;8.02;49.94;103060.97;5031920;28;20049;-82
2023/02/04 07:28:04;;;;;;;8.18;3.05;;;;;;;8.00;50.45;103064.72;5037839;28;20481;-83
2023/02/04 07:30:32;;;;;;;11.07;3.17;;;;;;;8.00;50.49;103070.19;5045863;28;20045;-80
2023/02/04 07:33:01;;;;;;;10.70;3.25;;;;;;;8.00;50.19;103075.63;5035084;28;20045;-80
2023/02/04 07:35:29;;;;;;;8.48;2.97;;;;;;;7.99;50.09;103073.84;5033183;28;20044;-81
2023/02/04 07:37:56;;;;;;;8.15;2.65;;;;;;;7.99;50.30;103087.50;5026087;28;20046;-81
2023/02/04 07:40:25;;;;;;;11.02;3.47;;;;;;;7.99;50.23;103085.66;5042305;28;20063;-81
2023/02/04 07:42:55;;;;;;;9.60;3.80;;;;;;;7.99;50.08;103080.19;5032114;28;20063;-81
2023/02/04 07:45:24;;;;;;;10.25;3.17;;;;;;;7.98;50.02;103088.44;5028241;28;20393;-81
2023/02/04 07:47:52;;;;;;;7.82;3.40;;;;;;;7.98;50.11;103093.88;5030215;28;20107;-80
2023/02/04 07:50:20;;;;;;;7.10;2.70;;;;;;;7.98;50.09;103091.16;5038615;28;20140;-81
2023/02/04 07:52:47;;;;;;;9.02;2.58;;;;;;;7.98;50.13;103102.06;5029229;28;20403;-80
2023/02/04 07:55:15;;;;;;;8.55;2.88;;;;;;;7.96;50.43;103103.00;5030532;28;20145;-80
2023/02/04 07:57:43;;;;;;;13.35;3.38;;;;;;;7.95;50.26;103106.69;5048985;28;20051;-80
2023/02/04 08:00:15;;;;;;;8.20;2.67;;;;;;;7.96;50.31;103108.47;5031651;28;20045;-80
2023/02/04 08:02:43;;;;;;;8.55;2.90;;;;;;;7.93;50.30;103108.59;5032024;28;20049;-80
2023/02/04 08:05:11;;;;;;;11.13;3.20;;;;;;;7.94;50.26;103115.81;5028307;28;20037;-80
2023/02/04 08:07:40;;;;;;;7.70;2.58;;;;;;;7.95;50.34;103111.25;5032035;28;20484;-80
2023/02/04 08:10:10;;;;;;;9.32;2.75;;;;;;;7.96;50.53;103110.31;5043552;28;20647;-80
2023/02/04 08:12:38;;;;;;;8.25;2.40;;;;;;;7.95;50.75;103120.31;5029776;28;20045;-80
2023/02/04 08:15:07;;;;;;;9.38;2.90;;;;;;;7.97;50.66;103117.53;5029873;28;20080;-81
2023/02/04 08:17:36;;;;;;;10.32;3.30;;;;;;;7.99;50.42;103117.47;5029865;28;20042;-82
2023/02/04 08:20:05;;;;;;;9.32;3.17;;;;;;;7.98;50.51;103127.50;5029265;28;20041;-80
2023/02/04 08:22:33;;;;;;;8.55;2.75;;;;;;;7.99;50.50;103131.13;5035381;28;20120;-82
2023/02/04 08:25:02;;;;;;;9.25;2.83;;;;;;;8.00;50.41;103132.91;5004740;28;20076;-82
2023/02/04 08:27:30;;;;;;;9.80;3.20;;;;;;;8.01;50.68;103141.03;5033058;28;20763;-81
2023/02/04 08:29:57;;;;;;;9.75;3.20;;;;;;;8.01;50.79;103143.75;5015649;28;20515;-81
2023/02/04 08:32:26;;;;;;;10.05;2.70;;;;;;;8.02;51.07;103145.50;5029888;28;20045;-82
2023/02/04 08:34:55;;;;;;;9.68;2.97;;;;;;;8.05;50.81;103147.22;5029152;28;20041;-82
2023/02/04 08:37:24;;;;;;;8.48;2.90;;;;;;;8.04;50.51;103151.78;5030643;28;20065;-81
2023/02/04 08:39:52;;;;;;;11.35;3.00;;;;;;;8.05;50.60;103153.56;5026878;28;20133;-82
2023/02/04 08:42:23;;;;;;;9.10;2.75;;;;;;;8.09;50.77;103157.06;5031068;28;20324;-82
2023/02/04 08:44:51;;;;;;;8.18;3.08;;;;;;;8.06;50.42;103152.63;5029871;28;20235;-82
2023/02/04 08:47:19;;;;;;;9.88;2.75;;;;;;;8.09;50.62;103157.06;5027455;28;20045;-81
2023/02/04 08:49:49;;;;;;;10.52;3.20;;;;;;;8.09;50.50;103152.50;5027559;28;20671;-82
2023/02/04 08:52:22;;;;;;;7.30;2.90;;;;;;;8.12;50.79;103160.53;5033832;28;20045;-82
2023/02/04 08:54:50;;;;;;;9.50;3.20;;;;;;;8.11;50.83;103163.31;5031407;28;20041;-82
2023/02/04 09:00:42;;;;;;;9.52;2.85;;;;;;;8.13;50.68;103169.63;5030474;28;20058;-82
2023/02/04 09:03:10;;;;;;;9.75;2.88;;;;;;;8.16;50.83;103172.25;5047870;28;20056;-81
2023/02/04 09:05:40;;;;;;;8.57;3.30;;;;;;;8.20;50.77;103174.78;5034300;28;20068;-81
2023/02/04 09:08:10;;;;;;;10.93;3.65;;;;;;;8.22;50.74;103175.63;5034327;28;20042;-80
2023/02/04 09:10:38;;;;;;;8.55;3.63;;;;;;;8.23;50.48;103177.41;5023868;28;20037;-81
2023/02/04 09:13:10;;;;;;;9.53;3.27;;;;;;;8.24;51.06;103184.63;5032636;28;20508;-82
2023/02/04 09:15:38;;;;;;;12.50;3.20;;;;;;;8.27;50.49;103189.06;5031709;28;20131;-81
2023/02/04 09:18:15;;;;;;;12.35;3.45;;;;;;;8.29;50.97;103184.44;5029925;28;20056;-81
2023/02/04 09:20:44;;;;;;;13.23;3.78;;;;;;;8.32;50.82;103185.22;5032471;28;20049;-82
2023/02/04 09:23:13;;;;;;;10.98;3.72;;;;;;;8.34;50.58;103191.47;5028960;28;20038;-82
2023/02/04 09:25:42;;;;;;;7.88;3.63;;;;;;;8.35;50.89;103195.09;5037351;28;20140;-78
2023/02/04 09:28:11;;;;;;;10.70;3.47;;;;;;;8.36;50.50;103188.69;5038630;28;20049;-77
2023/02/04 09:30:41;;;;;;;10.90;3.40;;;;;;;8.38;50.70;103194.97;5027919;28;20045;-77
2023/02/04 09:33:10;;;;;;;18.38;4.30;;;;;;;8.40;50.69;103192.19;5029833;28;20491;-78
2023/02/04 09:35:38;;;;;;;17.27;4.75;;;;;;;8.42;50.71;103198.47;5026944;28;20049;-77
2023/02/04 09:38:06;;;;;;;10.82;3.53;;;;;;;8.42;51.07;103196.63;5020032;28;20413;-77
2023/02/04 09:40:40;;;;;;;11.70;3.60;;;;;;;8.46;51.06;103191.94;5045399;28;20045;-78
2023/02/04 09:43:12;;;;;;;12.73;3.95;;;;;;;8.49;50.78;103194.53;5029952;28;20083;-77
2023/02/04 09:45:41;;;;;;;10.70;4.00;;;;;;;8.51;51.26;103203.53;5024336;28;20393;-82
2023/02/04 09:48:13;;;;;;;9.45;3.58;;;;;;;8.55;50.77;103197.88;5028527;28;20107;-82
2023/02/04 09:50:41;;;;;;;11.57;4.18;;;;;;;8.54;50.77;103189.75;5041871;28;20060;-82
2023/02/04 09:53:14;;;;;;;9.98;3.58;;;;;;;8.61;50.85;103199.47;5030166;28;20042;-83
2023/02/04 09:55:46;;;;;;;10.55;3.80;;;;;;;8.64;50.45;103202.06;5040793;28;20080;-83
2023/02/04 09:58:16;;;;;;;11.68;3.67;;;;;;;8.65;50.96;103214.78;5027099;28;20091;-83
2023/02/04 10:00:46;;;;;;;10.85;3.90;;;;;;;8.70;50.41;103213.63;5032458;28;20119;-83
2023/02/04 10:03:17;;;;;;;9.85;3.58;;;;;;;8.73;50.27;103222.63;5028875;28;20049;-83
2023/02/04 10:05:46;;;;;;;10.05;3.67;;;;;;;8.75;50.07;103227.09;5030058;28;20033;-83
2023/02/04 10:08:17;;;;;;;7.30;3.47;;;;;;;8.76;50.34;103225.22;5024152;28;20301;-83
2023/02/04 10:10:49;;;;;;;10.90;4.28;;;;;;;8.78;50.28;103224.22;5027309;28;20057;-83
2023/02/04 10:13:21;;;;;;;10.95;4.20;;;;;;;8.79;50.36;103228.72;5042878;28;20067;-83
2023/02/04 10:15:52;;;;;;;14.77;4.28;;;;;;;8.80;49.96;103222.31;5029068;28;20068;-83
2023/02/04 10:18:25;;;;;;;15.88;4.90;;;;;;;8.81;49.93;103218.63;5021443;28;20572;-83
2023/02/04 10:20:57;;;;;;;10.52;3.97;;;;;;;8.82;49.62;103217.69;5029251;28;20071;-82
2023/02/04 10:23:26;;;;;;;10.40;4.28;;;;;;;8.80;50.14;103227.78;5031060;28;20488;-83
2023/02/04 10:25:55;;;;;;;10.45;4.50;;;;;;;8.85;49.69;103223.00;5016532;28;20041;-83
2023/02/04 10:28:33;;;;;;;12.38;4.53;;;;;;;8.87;49.46;103223.81;5026202;28;20064;-83
2023/02/04 10:31:01;;;;;;;13.40;4.38;;;;;;;8.86;50.16;103226.59;5026903;28;20040;-82
2023/02/04 10:33:36;;;;;;;10.55;4.55;;;;;;;8.86;49.88;103227.50;5027991;28;20069;-83
2023/02/04 10:36:05;;;;;;;11.13;4.55;;;;;;;8.88;49.59;103224.72;5029284;28;20049;-83
2023/02/04 10:38:33;;;;;;;13.13;5.35;;;;;;;8.87;49.61;103218.34;5023136;28;20045;-83
2023/02/04 10:41:04;;;;;;;14.43;5.95;;;;;;;8.90;49.28;103223.69;5029379;28;20518;-82
2023/02/04 10:43:33;;;;;;;13.38;5.95;;;;;;;8.89;49.58;103226.50;5027028;28;20053;-83
2023/02/04 10:46:04;;;;;;;17.40;5.88;;;;;;;8.89;49.68;103227.38;5046412;28;20033;-82
2023/02/04 10:48:45;;;;;;;13.13;6.38;;;;;;;8.91;49.11;103227.31;5030312;28;20080;-82
2023/02/04 10:51:20;;;;;;;14.85;7.35;;;;;;;8.89;49.55;103229.22;5011780;28;20520;-83
2023/02/04 10:59:26;;;;;;;14.70;7.85;;;;;;;8.90;49.94;103228.28;4974838;28;20049;-83
2023/02/04 11:01:57;;;;;;;16.37;8.00;;;;;;;8.90;49.67;103228.28;5017697;28;20661;-82
2023/02/04 11:04:27;;;;;;;15.70;8.15;;;;;;;8.92;49.70;103229.97;5028836;28;20132;-82
2023/02/04 11:06:55;;;;;;;17.58;8.05;;;;;;;8.91;49.78;103228.22;5028450;28;20069;-83
2023/02/04 11:09:23;;;;;;;16.98;8.50;;;;;;;8.92;49.70;103229.97;5044099;28;20049;-82
2023/02/04 11:11:53;;;;;;;17.75;8.27;;;;;;;8.95;49.85;103227.09;5031478;28;20069;-81
2023/02/04 11:14:27;;;;;;;18.80;8.50;;;;;;;8.98;49.77;103224.25;5028489;28;20045;-81
2023/02/04 11:17:00;;;;;;;16.23;7.57;;;;;;;8.98;49.81;103228.81;5033685;28;20416;-83
2023/02/04 11:19:35;;;;;;;15.73;9.07;;;;;;;9.00;49.37;103230.50;5030618;28;20443;-83
2023/02/04 11:22:20;;;;;;;19.83;10.82;;;;;;;9.03;49.18;103226.78;5030256;28;20069;-82
2023/02/04 11:24:48;;;;;;;21.73;11.13;;;;;;;9.03;49.66;103230.41;5028430;28;20041;-82
2023/02/04 11:27:25;;;;;;;21.83;10.43;;;;;;;9.07;49.14;103226.59;5025890;28;20091;-82
2023/02/04 11:30:05;;;;;;;20.77;10.15;;;;;;;9.09;48.91;103221.03;5029122;28;20041;-82
2023/02/04 11:32:36;;;;;;;21.45;10.38;;;;;;;9.10;49.42;103222.81;5033767;28;20072;-82
2023/02/04 11:35:26;;;;;;;19.15;10.32;;;;;;;9.13;48.75;103230.00;5030981;28;20106;-81
2023/02/04 11:37:54;;;;;;;20.75;10.32;;;;;;;9.14;49.58;103226.31;5029114;28;20488;-82
2023/02/04 11:40:29;;;;;;;18.42;10.00;;;;;;;9.17;49.14;103229.78;5029197;28;20045;-80
2023/02/04 11:43:00;;;;;;;25.95;10.68;;;;;;;9.20;49.24;103229.66;5028157;28;20439;-82
2023/02/04 11:45:31;;;;;;;43.40;13.00;;;;;;;9.22;49.31;103229.59;5029690;28;20042;-82
2023/02/04 11:51:16;;;;;;;18.33;9.20;;;;;;;9.24;49.34;103236.78;5025641;28;20056;-82
2023/02/04 11:53:44;;;;;;;17.85;9.02;;;;;;;9.28;48.86;103232.03;5018252;28;20034;-82
2023/02/04 11:56:18;;;;;;;17.52;8.88;;;;;;;9.35;48.52;103230.81;5029768;28;20433;-82
2023/02/04 11:58:50;;;;;;;17.02;8.48;;;;;;;9.35;48.95;103234.44;4994936;28;20276;-83